Weed, California
Current Conditions -  °F | °C
As of 12:56 PM on Saturday 20 Dec 2014 (Local Time) from KMHS Reporting Station
Light Rain Light Rain  
Wind Chill: 42°   Ceiling: 4500
Heat Index: 44°   Visibility: 10mi
Dew Point: 40°   Wind: 5mph
Humidity: 85%   Direction: 110°ESE
Pressure: 30.07"   Gusts: NA
Location:  41.42°N, 122.39°W
Report Text: KMHS 202056Z AUTO 11004KT 10SM -RA FEW028 BKN045 OVC055 07/04 A3007 RMK AO2 RAB14 SLP202 P0002 60002 T00670044 58001
Loading
Personal Weather Stations






























Interactive Weather Map New forecast layout! Learn more

10-Day Weather Forecast

Advertisements
Track Severe Weather on mobile